sensor_id;sensor_type;location;lat;lon;timestamp;P1;durP1;ratioP1;P2;durP2;ratioP2
51459;SDS011;37534;39.772;2.718;2023-05-28T00:00:41;8.45;;;4.70;;
51459;SDS011;37534;39.772;2.718;2023-05-28T00:03:07;9.65;;;5.15;;
51459;SDS011;37534;39.772;2.718;2023-05-28T00:05:33;18.52;;;4.75;;
51459;SDS011;37534;39.772;2.718;2023-05-28T00:07:59;18.48;;;4.63;;
51459;SDS011;37534;39.772;2.718;2023-05-28T00:10:25;8.70;;;4.65;;
51459;SDS011;37534;39.772;2.718;2023-05-28T00:12:51;9.23;;;4.57;;
51459;SDS011;37534;39.772;2.718;2023-05-28T00:15:17;10.82;;;4.95;;
51459;SDS011;37534;39.772;2.718;2023-05-28T00:17:43;10.70;;;4.93;;
51459;SDS011;37534;39.772;2.718;2023-05-28T00:20:08;9.70;;;5.05;;
51459;SDS011;37534;39.772;2.718;2023-05-28T00:22:35;8.02;;;4.88;;
51459;SDS011;37534;39.772;2.718;2023-05-28T00:25:01;11.77;;;4.60;;
51459;SDS011;37534;39.772;2.718;2023-05-28T00:27:27;12.98;;;5.05;;
51459;SDS011;37534;39.772;2.718;2023-05-28T00:29:52;8.18;;;4.35;;
51459;SDS011;37534;39.772;2.718;2023-05-28T00:32:18;9.80;;;5.03;;
51459;SDS011;37534;39.772;2.718;2023-05-28T00:34:43;20.02;;;8.07;;
51459;SDS011;37534;39.772;2.718;2023-05-28T00:37:09;39.13;;;14.40;;
51459;SDS011;37534;39.772;2.718;2023-05-28T00:39:35;39.10;;;17.52;;
51459;SDS011;37534;39.772;2.718;2023-05-28T00:42:01;25.40;;;13.52;;
51459;SDS011;37534;39.772;2.718;2023-05-28T00:44:27;27.65;;;10.38;;
51459;SDS011;37534;39.772;2.718;2023-05-28T00:46:53;16.85;;;7.93;;
51459;SDS011;37534;39.772;2.718;2023-05-28T00:49:20;12.77;;;8.18;;
51459;SDS011;37534;39.772;2.718;2023-05-28T00:51:47;15.52;;;6.68;;
51459;SDS011;37534;39.772;2.718;2023-05-28T00:54:13;17.95;;;7.22;;
51459;SDS011;37534;39.772;2.718;2023-05-28T00:56:40;14.20;;;6.03;;
51459;SDS011;37534;39.772;2.718;2023-05-28T00:59:06;8.40;;;5.30;;
51459;SDS011;37534;39.772;2.718;2023-05-28T01:01:32;9.10;;;6.13;;
51459;SDS011;37534;39.772;2.718;2023-05-28T01:04:00;8.00;;;5.05;;
51459;SDS011;37534;39.772;2.718;2023-05-28T01:06:26;10.63;;;5.40;;
51459;SDS011;37534;39.772;2.718;2023-05-28T01:08:53;16.83;;;6.78;;
51459;SDS011;37534;39.772;2.718;2023-05-28T01:11:19;14.13;;;6.00;;
51459;SDS011;37534;39.772;2.718;2023-05-28T01:13:46;12.80;;;6.05;;
51459;SDS011;37534;39.772;2.718;2023-05-28T01:16:13;8.07;;;5.43;;
51459;SDS011;37534;39.772;2.718;2023-05-28T01:18:38;10.65;;;5.32;;
51459;SDS011;37534;39.772;2.718;2023-05-28T01:21:05;7.68;;;4.90;;
51459;SDS011;37534;39.772;2.718;2023-05-28T01:23:37;6.80;;;5.20;;
51459;SDS011;37534;39.772;2.718;2023-05-28T01:26:16;6.47;;;4.60;;
51459;SDS011;37534;39.772;2.718;2023-05-28T01:28:45;8.18;;;5.28;;
51459;SDS011;37534;39.772;2.718;2023-05-28T01:31:12;7.28;;;5.20;;
51459;SDS011;37534;39.772;2.718;2023-05-28T01:33:41;7.97;;;4.38;;
51459;SDS011;37534;39.772;2.718;2023-05-28T01:36:18;12.10;;;6.05;;
51459;SDS011;37534;39.772;2.718;2023-05-28T01:38:48;7.10;;;4.97;;
51459;SDS011;37534;39.772;2.718;2023-05-28T01:41:17;18.15;;;5.95;;
51459;SDS011;37534;39.772;2.718;2023-05-28T01:43:44;19.98;;;5.65;;
51459;SDS011;37534;39.772;2.718;2023-05-28T01:46:11;8.75;;;5.82;;
51459;SDS011;37534;39.772;2.718;2023-05-28T01:48:37;10.68;;;6.15;;
51459;SDS011;37534;39.772;2.718;2023-05-28T01:51:03;11.02;;;5.43;;
51459;SDS011;37534;39.772;2.718;2023-05-28T01:53:28;7.85;;;5.65;;
51459;SDS011;37534;39.772;2.718;2023-05-28T01:55:54;10.98;;;4.53;;
51459;SDS011;37534;39.772;2.718;2023-05-28T01:58:23;8.52;;;5.80;;
51459;SDS011;37534;39.772;2.718;2023-05-28T02:01:09;8.23;;;4.80;;
51459;SDS011;37534;39.772;2.718;2023-05-28T02:03:40;11.40;;;4.70;;
51459;SDS011;37534;39.772;2.718;2023-05-28T02:06:06;8.05;;;4.95;;
51459;SDS011;37534;39.772;2.718;2023-05-28T02:08:32;7.97;;;5.43;;
51459;SDS011;37534;39.772;2.718;2023-05-28T02:10:57;8.75;;;5.85;;
51459;SDS011;37534;39.772;2.718;2023-05-28T02:13:23;10.00;;;5.90;;
51459;SDS011;37534;39.772;2.718;2023-05-28T02:15:48;7.35;;;4.72;;
51459;SDS011;37534;39.772;2.718;2023-05-28T02:18:14;15.70;;;5.68;;
51459;SDS011;37534;39.772;2.718;2023-05-28T02:20:41;6.47;;;5.20;;
51459;SDS011;37534;39.772;2.718;2023-05-28T02:23:07;7.05;;;4.63;;
51459;SDS011;37534;39.772;2.718;2023-05-28T02:25:34;6.50;;;5.15;;
51459;SDS011;37534;39.772;2.718;2023-05-28T02:28:00;5.85;;;4.65;;
51459;SDS011;37534;39.772;2.718;2023-05-28T02:30:26;5.75;;;4.25;;
51459;SDS011;37534;39.772;2.718;2023-05-28T02:32:52;7.47;;;5.85;;
51459;SDS011;37534;39.772;2.718;2023-05-28T02:35:20;7.80;;;4.78;;
51459;SDS011;37534;39.772;2.718;2023-05-28T02:37:46;7.80;;;4.97;;
51459;SDS011;37534;39.772;2.718;2023-05-28T02:40:12;8.55;;;5.68;;
51459;SDS011;37534;39.772;2.718;2023-05-28T02:42:38;12.45;;;5.30;;
51459;SDS011;37534;39.772;2.718;2023-05-28T02:45:04;9.93;;;4.53;;
51459;SDS011;37534;39.772;2.718;2023-05-28T02:47:31;10.23;;;5.80;;
51459;SDS011;37534;39.772;2.718;2023-05-28T02:49:56;21.90;;;6.75;;
51459;SDS011;37534;39.772;2.718;2023-05-28T02:52:22;9.77;;;5.50;;
51459;SDS011;37534;39.772;2.718;2023-05-28T02:54:47;7.80;;;4.93;;
51459;SDS011;37534;39.772;2.718;2023-05-28T02:57:13;11.63;;;5.55;;
51459;SDS011;37534;39.772;2.718;2023-05-28T02:59:39;7.78;;;5.70;;
51459;SDS011;37534;39.772;2.718;2023-05-28T03:02:05;13.63;;;6.68;;
51459;SDS011;37534;39.772;2.718;2023-05-28T03:04:30;6.70;;;4.90;;
51459;SDS011;37534;39.772;2.718;2023-05-28T03:06:56;15.18;;;5.47;;
51459;SDS011;37534;39.772;2.718;2023-05-28T03:09:21;9.40;;;6.40;;
51459;SDS011;37534;39.772;2.718;2023-05-28T03:11:47;14.60;;;5.57;;
51459;SDS011;37534;39.772;2.718;2023-05-28T03:14:12;16.88;;;6.45;;
51459;SDS011;37534;39.772;2.718;2023-05-28T03:16:38;12.55;;;5.53;;
51459;SDS011;37534;39.772;2.718;2023-05-28T03:19:03;8.45;;;5.47;;
51459;SDS011;37534;39.772;2.718;2023-05-28T03:21:29;15.52;;;5.60;;
51459;SDS011;37534;39.772;2.718;2023-05-28T03:23:55;21.20;;;5.85;;
51459;SDS011;37534;39.772;2.718;2023-05-28T03:26:20;15.52;;;6.10;;
51459;SDS011;37534;39.772;2.718;2023-05-28T03:28:47;9.25;;;5.43;;
51459;SDS011;37534;39.772;2.718;2023-05-28T03:31:12;6.35;;;5.00;;
51459;SDS011;37534;39.772;2.718;2023-05-28T03:33:38;15.45;;;6.43;;
51459;SDS011;37534;39.772;2.718;2023-05-28T03:36:04;10.60;;;6.57;;
51459;SDS011;37534;39.772;2.718;2023-05-28T03:38:32;6.20;;;5.70;;
51459;SDS011;37534;39.772;2.718;2023-05-28T03:40:58;6.60;;;5.38;;
51459;SDS011;37534;39.772;2.718;2023-05-28T03:43:24;8.77;;;5.65;;
51459;SDS011;37534;39.772;2.718;2023-05-28T03:45:49;9.55;;;5.60;;
51459;SDS011;37534;39.772;2.718;2023-05-28T03:48:15;5.75;;;5.30;;
51459;SDS011;37534;39.772;2.718;2023-05-28T03:50:40;9.48;;;5.93;;
51459;SDS011;37534;39.772;2.718;2023-05-28T03:53:06;9.43;;;5.13;;
51459;SDS011;37534;39.772;2.718;2023-05-28T03:55:32;10.77;;;6.25;;
51459;SDS011;37534;39.772;2.718;2023-05-28T03:57:58;12.45;;;7.28;;
51459;SDS011;37534;39.772;2.718;2023-05-28T04:00:23;15.93;;;8.02;;
51459;SDS011;37534;39.772;2.718;2023-05-28T04:02:49;17.63;;;11.18;;
51459;SDS011;37534;39.772;2.718;2023-05-28T04:05:15;12.02;;;9.80;;
51459;SDS011;37534;39.772;2.718;2023-05-28T04:07:40;15.20;;;7.00;;
51459;SDS011;37534;39.772;2.718;2023-05-28T04:10:06;9.38;;;6.78;;
51459;SDS011;37534;39.772;2.718;2023-05-28T04:12:32;14.30;;;9.15;;
51459;SDS011;37534;39.772;2.718;2023-05-28T04:14:58;13.10;;;7.80;;
51459;SDS011;37534;39.772;2.718;2023-05-28T04:17:25;12.68;;;8.93;;
51459;SDS011;37534;39.772;2.718;2023-05-28T04:19:52;13.68;;;8.07;;
51459;SDS011;37534;39.772;2.718;2023-05-28T04:22:18;10.75;;;7.05;;
51459;SDS011;37534;39.772;2.718;2023-05-28T04:24:43;7.68;;;6.88;;
51459;SDS011;37534;39.772;2.718;2023-05-28T04:27:10;9.68;;;6.40;;
51459;SDS011;37534;39.772;2.718;2023-05-28T04:29:36;11.73;;;6.60;;
51459;SDS011;37534;39.772;2.718;2023-05-28T04:32:01;14.32;;;5.82;;
51459;SDS011;37534;39.772;2.718;2023-05-28T04:34:28;10.75;;;5.88;;
51459;SDS011;37534;39.772;2.718;2023-05-28T04:36:54;17.85;;;6.32;;
51459;SDS011;37534;39.772;2.718;2023-05-28T04:39:21;12.25;;;6.82;;
51459;SDS011;37534;39.772;2.718;2023-05-28T04:41:48;10.63;;;6.60;;
51459;SDS011;37534;39.772;2.718;2023-05-28T04:44:14;7.90;;;5.50;;
51459;SDS011;37534;39.772;2.718;2023-05-28T04:46:43;7.38;;;5.82;;
51459;SDS011;37534;39.772;2.718;2023-05-28T04:49:10;14.82;;;6.40;;
51459;SDS011;37534;39.772;2.718;2023-05-28T04:51:37;14.02;;;6.13;;
51459;SDS011;37534;39.772;2.718;2023-05-28T04:54:03;12.85;;;5.75;;
51459;SDS011;37534;39.772;2.718;2023-05-28T04:56:29;8.23;;;6.00;;
51459;SDS011;37534;39.772;2.718;2023-05-28T04:58:55;7.88;;;5.13;;
51459;SDS011;37534;39.772;2.718;2023-05-28T05:01:21;14.45;;;6.68;;
51459;SDS011;37534;39.772;2.718;2023-05-28T05:03:47;8.02;;;5.28;;
51459;SDS011;37534;39.772;2.718;2023-05-28T05:06:13;10.63;;;6.28;;
51459;SDS011;37534;39.772;2.718;2023-05-28T05:08:39;7.22;;;6.20;;
51459;SDS011;37534;39.772;2.718;2023-05-28T05:11:04;9.05;;;6.10;;
51459;SDS011;37534;39.772;2.718;2023-05-28T05:13:31;16.17;;;6.85;;
51459;SDS011;37534;39.772;2.718;2023-05-28T05:15:57;7.15;;;5.55;;
51459;SDS011;37534;39.772;2.718;2023-05-28T05:18:23;13.40;;;6.57;;
51459;SDS011;37534;39.772;2.718;2023-05-28T05:20:48;8.40;;;5.85;;
51459;SDS011;37534;39.772;2.718;2023-05-28T05:23:14;9.98;;;6.43;;
51459;SDS011;37534;39.772;2.718;2023-05-28T05:25:40;8.52;;;5.53;;
51459;SDS011;37534;39.772;2.718;2023-05-28T05:28:05;8.45;;;6.07;;
51459;SDS011;37534;39.772;2.718;2023-05-28T05:30:31;11.10;;;6.70;;
51459;SDS011;37534;39.772;2.718;2023-05-28T05:32:56;6.82;;;5.70;;
51459;SDS011;37534;39.772;2.718;2023-05-28T05:35:22;8.35;;;5.38;;
51459;SDS011;37534;39.772;2.718;2023-05-28T05:37:48;14.02;;;6.30;;
51459;SDS011;37534;39.772;2.718;2023-05-28T05:40:13;11.05;;;6.15;;
51459;SDS011;37534;39.772;2.718;2023-05-28T05:42:39;10.50;;;6.25;;
51459;SDS011;37534;39.772;2.718;2023-05-28T05:45:05;9.25;;;6.93;;
51459;SDS011;37534;39.772;2.718;2023-05-28T05:47:31;7.50;;;6.00;;
51459;SDS011;37534;39.772;2.718;2023-05-28T05:49:56;5.95;;;5.03;;
51459;SDS011;37534;39.772;2.718;2023-05-28T05:52:22;8.00;;;5.32;;
51459;SDS011;37534;39.772;2.718;2023-05-28T05:54:48;11.80;;;5.55;;
51459;SDS011;37534;39.772;2.718;2023-05-28T05:57:14;9.18;;;5.20;;
51459;SDS011;37534;39.772;2.718;2023-05-28T05:59:39;18.35;;;8.10;;
51459;SDS011;37534;39.772;2.718;2023-05-28T06:02:05;7.45;;;6.07;;
51459;SDS011;37534;39.772;2.718;2023-05-28T06:04:31;7.07;;;6.03;;
51459;SDS011;37534;39.772;2.718;2023-05-28T06:07:00;6.82;;;5.47;;
51459;SDS011;37534;39.772;2.718;2023-05-28T06:09:29;9.65;;;6.35;;
51459;SDS011;37534;39.772;2.718;2023-05-28T06:11:56;10.63;;;5.90;;
51459;SDS011;37534;39.772;2.718;2023-05-28T06:14:22;7.00;;;5.75;;
51459;SDS011;37534;39.772;2.718;2023-05-28T06:16:48;10.98;;;6.63;;
51459;SDS011;37534;39.772;2.718;2023-05-28T06:19:13;9.27;;;6.28;;
51459;SDS011;37534;39.772;2.718;2023-05-28T06:21:39;11.88;;;5.85;;
51459;SDS011;37534;39.772;2.718;2023-05-28T06:24:05;9.32;;;5.95;;
51459;SDS011;37534;39.772;2.718;2023-05-28T06:26:31;10.80;;;5.00;;
51459;SDS011;37534;39.772;2.718;2023-05-28T06:28:57;9.38;;;5.72;;
51459;SDS011;37534;39.772;2.718;2023-05-28T06:31:22;7.63;;;5.50;;
51459;SDS011;37534;39.772;2.718;2023-05-28T06:33:48;5.85;;;4.80;;
51459;SDS011;37534;39.772;2.718;2023-05-28T06:36:14;15.75;;;8.10;;
51459;SDS011;37534;39.772;2.718;2023-05-28T06:38:39;22.83;;;13.38;;
51459;SDS011;37534;39.772;2.718;2023-05-28T06:41:05;14.70;;;10.13;;
51459;SDS011;37534;39.772;2.718;2023-05-28T06:43:30;13.63;;;8.15;;
51459;SDS011;37534;39.772;2.718;2023-05-28T06:45:56;9.23;;;7.32;;
51459;SDS011;37534;39.772;2.718;2023-05-28T06:48:21;9.65;;;6.15;;
51459;SDS011;37534;39.772;2.718;2023-05-28T06:50:47;10.13;;;5.88;;
51459;SDS011;37534;39.772;2.718;2023-05-28T06:53:12;13.27;;;5.57;;
51459;SDS011;37534;39.772;2.718;2023-05-28T06:55:38;14.38;;;5.88;;
51459;SDS011;37534;39.772;2.718;2023-05-28T06:58:03;13.02;;;5.45;;
51459;SDS011;37534;39.772;2.718;2023-05-28T07:00:29;6.65;;;5.38;;
51459;SDS011;37534;39.772;2.718;2023-05-28T07:02:55;11.57;;;5.00;;
51459;SDS011;37534;39.772;2.718;2023-05-28T07:05:21;7.00;;;5.13;;
51459;SDS011;37534;39.772;2.718;2023-05-28T07:07:46;6.85;;;5.03;;
51459;SDS011;37534;39.772;2.718;2023-05-28T07:10:12;6.95;;;5.63;;
51459;SDS011;37534;39.772;2.718;2023-05-28T07:12:37;7.82;;;5.38;;
51459;SDS011;37534;39.772;2.718;2023-05-28T07:15:03;10.32;;;6.55;;
51459;SDS011;37534;39.772;2.718;2023-05-28T07:17:29;12.60;;;9.77;;
51459;SDS011;37534;39.772;2.718;2023-05-28T07:19:55;19.13;;;11.18;;
51459;SDS011;37534;39.772;2.718;2023-05-28T07:22:20;19.17;;;12.23;;
51459;SDS011;37534;39.772;2.718;2023-05-28T07:24:46;17.90;;;11.82;;
51459;SDS011;37534;39.772;2.718;2023-05-28T07:27:11;16.63;;;11.43;;
51459;SDS011;37534;39.772;2.718;2023-05-28T07:29:37;28.63;;;13.40;;
51459;SDS011;37534;39.772;2.718;2023-05-28T07:32:02;19.20;;;12.55;;
51459;SDS011;37534;39.772;2.718;2023-05-28T07:34:28;21.10;;;14.18;;
51459;SDS011;37534;39.772;2.718;2023-05-28T07:36:53;21.15;;;14.60;;
51459;SDS011;37534;39.772;2.718;2023-05-28T07:39:19;22.35;;;12.65;;
51459;SDS011;37534;39.772;2.718;2023-05-28T07:41:45;15.55;;;9.55;;
51459;SDS011;37534;39.772;2.718;2023-05-28T07:44:10;16.42;;;10.30;;
51459;SDS011;37534;39.772;2.718;2023-05-28T07:46:36;20.33;;;8.80;;
51459;SDS011;37534;39.772;2.718;2023-05-28T07:49:02;19.13;;;9.05;;
51459;SDS011;37534;39.772;2.718;2023-05-28T07:51:27;10.27;;;6.13;;
51459;SDS011;37534;39.772;2.718;2023-05-28T07:53:53;10.68;;;5.45;;
51459;SDS011;37534;39.772;2.718;2023-05-28T07:56:19;12.60;;;4.88;;
51459;SDS011;37534;39.772;2.718;2023-05-28T07:58:47;9.48;;;5.18;;
51459;SDS011;37534;39.772;2.718;2023-05-28T08:01:12;6.50;;;4.22;;
51459;SDS011;37534;39.772;2.718;2023-05-28T08:03:38;10.65;;;5.70;;
51459;SDS011;37534;39.772;2.718;2023-05-28T08:06:04;23.90;;;5.95;;
51459;SDS011;37534;39.772;2.718;2023-05-28T08:08:31;27.65;;;5.45;;
51459;SDS011;37534;39.772;2.718;2023-05-28T08:10:57;5.13;;;3.85;;
51459;SDS011;37534;39.772;2.718;2023-05-28T08:13:23;11.23;;;5.00;;
51459;SDS011;37534;39.772;2.718;2023-05-28T08:15:48;7.03;;;4.60;;
51459;SDS011;37534;39.772;2.718;2023-05-28T08:18:17;9.32;;;4.15;;
51459;SDS011;37534;39.772;2.718;2023-05-28T08:20:43;16.75;;;4.65;;
51459;SDS011;37534;39.772;2.718;2023-05-28T08:23:08;8.02;;;5.10;;
51459;SDS011;37534;39.772;2.718;2023-05-28T08:25:34;15.52;;;4.25;;
51459;SDS011;37534;39.772;2.718;2023-05-28T08:28:00;18.67;;;3.92;;
51459;SDS011;37534;39.772;2.718;2023-05-28T08:30:26;19.88;;;5.07;;
51459;SDS011;37534;39.772;2.718;2023-05-28T08:32:51;9.07;;;3.88;;
51459;SDS011;37534;39.772;2.718;2023-05-28T08:35:17;10.90;;;4.10;;
51459;SDS011;37534;39.772;2.718;2023-05-28T08:37:42;8.95;;;5.45;;
51459;SDS011;37534;39.772;2.718;2023-05-28T08:40:08;11.55;;;4.93;;
51459;SDS011;37534;39.772;2.718;2023-05-28T08:42:35;23.58;;;5.65;;
51459;SDS011;37534;39.772;2.718;2023-05-28T08:45:01;7.50;;;3.78;;
51459;SDS011;37534;39.772;2.718;2023-05-28T08:47:28;15.52;;;4.53;;
51459;SDS011;37534;39.772;2.718;2023-05-28T08:49:56;14.98;;;5.50;;
51459;SDS011;37534;39.772;2.718;2023-05-28T08:52:27;11.03;;;5.40;;
51459;SDS011;37534;39.772;2.718;2023-05-28T08:54:59;12.68;;;5.53;;
51459;SDS011;37534;39.772;2.718;2023-05-28T08:57:25;7.75;;;4.32;;
51459;SDS011;37534;39.772;2.718;2023-05-28T08:59:53;11.38;;;5.18;;
51459;SDS011;37534;39.772;2.718;2023-05-28T09:02:25;12.68;;;6.25;;
51459;SDS011;37534;39.772;2.718;2023-05-28T09:04:51;23.27;;;8.18;;
51459;SDS011;37534;39.772;2.718;2023-05-28T09:07:18;12.82;;;6.70;;
51459;SDS011;37534;39.772;2.718;2023-05-28T09:09:44;8.40;;;5.32;;
51459;SDS011;37534;39.772;2.718;2023-05-28T09:12:19;19.48;;;6.30;;
51459;SDS011;37534;39.772;2.718;2023-05-28T09:14:49;9.40;;;4.95;;
51459;SDS011;37534;39.772;2.718;2023-05-28T09:17:16;8.05;;;5.35;;
51459;SDS011;37534;39.772;2.718;2023-05-28T09:19:51;15.98;;;5.97;;
51459;SDS011;37534;39.772;2.718;2023-05-28T09:22:19;11.18;;;5.97;;
51459;SDS011;37534;39.772;2.718;2023-05-28T09:24:48;9.35;;;5.25;;
51459;SDS011;37534;39.772;2.718;2023-05-28T09:27:14;10.90;;;5.15;;
51459;SDS011;37534;39.772;2.718;2023-05-28T09:29:44;8.75;;;5.20;;
51459;SDS011;37534;39.772;2.718;2023-05-28T09:32:10;11.88;;;5.07;;
51459;SDS011;37534;39.772;2.718;2023-05-28T09:34:40;9.05;;;5.22;;
51459;SDS011;37534;39.772;2.718;2023-05-28T09:37:07;15.53;;;5.73;;
51459;SDS011;37534;39.772;2.718;2023-05-28T09:39:32;9.73;;;4.75;;
51459;SDS011;37534;39.772;2.718;2023-05-28T09:42:02;8.65;;;4.72;;
51459;SDS011;37534;39.772;2.718;2023-05-28T09:44:38;10.63;;;4.75;;
51459;SDS011;37534;39.772;2.718;2023-05-28T09:47:14;8.45;;;4.57;;
51459;SDS011;37534;39.772;2.718;2023-05-28T09:49:47;16.17;;;5.38;;
51459;SDS011;37534;39.772;2.718;2023-05-28T09:52:16;12.13;;;5.40;;
51459;SDS011;37534;39.772;2.718;2023-05-28T09:54:45;11.27;;;4.85;;
51459;SDS011;37534;39.772;2.718;2023-05-28T09:57:38;10.00;;;4.75;;
51459;SDS011;37534;39.772;2.718;2023-05-28T10:00:06;13.40;;;4.40;;
51459;SDS011;37534;39.772;2.718;2023-05-28T10:05:31;9.55;;;7.75;;
51459;SDS011;37534;39.772;2.718;2023-05-28T10:07:59;29.23;;;14.52;;
51459;SDS011;37534;39.772;2.718;2023-05-28T10:10:26;32.17;;;17.48;;
51459;SDS011;37534;39.772;2.718;2023-05-28T10:12:54;28.98;;;15.85;;
51459;SDS011;37534;39.772;2.718;2023-05-28T10:15:21;21.70;;;13.52;;
51459;SDS011;37534;39.772;2.718;2023-05-28T10:17:48;21.83;;;9.98;;
51459;SDS011;37534;39.772;2.718;2023-05-28T10:20:14;27.27;;;8.07;;
51459;SDS011;37534;39.772;2.718;2023-05-28T10:22:41;7.93;;;4.65;;
51459;SDS011;37534;39.772;2.718;2023-05-28T10:25:07;13.75;;;4.30;;
51459;SDS011;37534;39.772;2.718;2023-05-28T10:27:37;21.60;;;5.53;;
51459;SDS011;37534;39.772;2.718;2023-05-28T10:30:09;9.02;;;5.35;;
51459;SDS011;37534;39.772;2.718;2023-05-28T10:32:41;13.55;;;6.10;;
51459;SDS011;37534;39.772;2.718;2023-05-28T10:35:10;22.30;;;7.68;;
51459;SDS011;37534;39.772;2.718;2023-05-28T10:37:37;20.40;;;5.38;;
51459;SDS011;37534;39.772;2.718;2023-05-28T10:40:08;17.67;;;5.85;;
51459;SDS011;37534;39.772;2.718;2023-05-28T10:42:38;8.63;;;4.32;;
51459;SDS011;37534;39.772;2.718;2023-05-28T10:45:06;9.75;;;3.95;;
51459;SDS011;37534;39.772;2.718;2023-05-28T10:47:50;7.32;;;4.13;;
51459;SDS011;37534;39.772;2.718;2023-05-28T10:50:17;13.45;;;4.75;;
51459;SDS011;37534;39.772;2.718;2023-05-28T11:00:47;15.10;;;4.50;;
51459;SDS011;37534;39.772;2.718;2023-05-28T11:03:13;9.18;;;4.63;;
51459;SDS011;37534;39.772;2.718;2023-05-28T11:05:39;6.03;;;3.35;;
51459;SDS011;37534;39.772;2.718;2023-05-28T11:08:04;9.45;;;3.83;;
51459;SDS011;37534;39.772;2.718;2023-05-28T11:10:31;8.30;;;3.70;;
51459;SDS011;37534;39.772;2.718;2023-05-28T11:13:00;6.72;;;4.57;;
51459;SDS011;37534;39.772;2.718;2023-05-28T11:15:26;10.10;;;4.32;;
51459;SDS011;37534;39.772;2.718;2023-05-28T11:17:52;8.07;;;3.85;;
51459;SDS011;37534;39.772;2.718;2023-05-28T11:20:18;7.47;;;3.72;;
51459;SDS011;37534;39.772;2.718;2023-05-28T11:22:47;11.43;;;3.15;;
51459;SDS011;37534;39.772;2.718;2023-05-28T11:25:13;5.93;;;3.63;;
51459;SDS011;37534;39.772;2.718;2023-05-28T11:27:39;6.80;;;3.50;;
51459;SDS011;37534;39.772;2.718;2023-05-28T11:30:12;15.00;;;4.07;;
51459;SDS011;37534;39.772;2.718;2023-05-28T11:32:40;8.43;;;3.92;;
51459;SDS011;37534;39.772;2.718;2023-05-28T11:35:07;5.97;;;3.75;;
51459;SDS011;37534;39.772;2.718;2023-05-28T11:37:36;6.93;;;3.80;;
51459;SDS011;37534;39.772;2.718;2023-05-28T11:40:03;6.78;;;3.05;;
51459;SDS011;37534;39.772;2.718;2023-05-28T11:42:34;14.45;;;4.32;;
51459;SDS011;37534;39.772;2.718;2023-05-28T11:45:01;6.75;;;3.15;;
51459;SDS011;37534;39.772;2.718;2023-05-28T11:47:26;7.13;;;3.92;;
51459;SDS011;37534;39.772;2.718;2023-05-28T11:49:52;12.82;;;3.67;;
51459;SDS011;37534;39.772;2.718;2023-05-28T11:52:20;14.00;;;3.67;;
51459;SDS011;37534;39.772;2.718;2023-05-28T11:54:59;11.73;;;3.15;;
51459;SDS011;37534;39.772;2.718;2023-05-28T11:57:26;8.40;;;3.38;;
51459;SDS011;37534;39.772;2.718;2023-05-28T11:59:54;4.43;;;3.15;;
51459;SDS011;37534;39.772;2.718;2023-05-28T12:05:12;5.80;;;3.28;;
51459;SDS011;37534;39.772;2.718;2023-05-28T12:07:43;12.60;;;3.50;;
51459;SDS011;37534;39.772;2.718;2023-05-28T12:10:22;9.23;;;3.83;;
51459;SDS011;37534;39.772;2.718;2023-05-28T12:12:52;10.68;;;3.67;;
51459;SDS011;37534;39.772;2.718;2023-05-28T12:15:21;8.50;;;3.85;;
51459;SDS011;37534;39.772;2.718;2023-05-28T12:17:56;8.60;;;3.85;;
51459;SDS011;37534;39.772;2.718;2023-05-28T12:20:29;7.45;;;4.28;;
51459;SDS011;37534;39.772;2.718;2023-05-28T12:23:03;16.50;;;3.60;;
51459;SDS011;37534;39.772;2.718;2023-05-28T12:28:09;9.32;;;4.53;;
51459;SDS011;37534;39.772;2.718;2023-05-28T12:30:35;7.35;;;3.92;;
51459;SDS011;37534;39.772;2.718;2023-05-28T12:33:02;5.22;;;3.22;;
51459;SDS011;37534;39.772;2.718;2023-05-28T12:35:28;16.33;;;4.47;;
51459;SDS011;37534;39.772;2.718;2023-05-28T12:37:53;8.90;;;4.07;;
51459;SDS011;37534;39.772;2.718;2023-05-28T12:40:19;6.57;;;3.58;;
51459;SDS011;37534;39.772;2.718;2023-05-28T12:42:45;9.25;;;4.00;;
51459;SDS011;37534;39.772;2.718;2023-05-28T12:45:10;12.20;;;3.92;;
51459;SDS011;37534;39.772;2.718;2023-05-28T12:47:36;7.72;;;2.95;;
51459;SDS011;37534;39.772;2.718;2023-05-28T12:50:01;6.82;;;4.20;;
51459;SDS011;37534;39.772;2.718;2023-05-28T12:52:27;5.55;;;3.38;;
51459;SDS011;37534;39.772;2.718;2023-05-28T12:54:53;11.23;;;3.45;;
51459;SDS011;37534;39.772;2.718;2023-05-28T12:57:18;9.18;;;3.75;;
51459;SDS011;37534;39.772;2.718;2023-05-28T12:59:43;5.93;;;3.33;;
51459;SDS011;37534;39.772;2.718;2023-05-28T13:02:09;7.35;;;3.47;;
51459;SDS011;37534;39.772;2.718;2023-05-28T13:04:35;13.65;;;3.83;;
51459;SDS011;37534;39.772;2.718;2023-05-28T13:07:02;9.80;;;3.80;;
51459;SDS011;37534;39.772;2.718;2023-05-28T13:09:27;15.88;;;3.80;;
51459;SDS011;37534;39.772;2.718;2023-05-28T13:11:54;4.95;;;3.60;;
51459;SDS011;37534;39.772;2.718;2023-05-28T13:14:20;8.07;;;3.10;;
51459;SDS011;37534;39.772;2.718;2023-05-28T13:16:46;7.75;;;3.72;;
51459;SDS011;37534;39.772;2.718;2023-05-28T13:19:11;8.10;;;3.90;;
51459;SDS011;37534;39.772;2.718;2023-05-28T13:21:37;16.27;;;4.15;;
51459;SDS011;37534;39.772;2.718;2023-05-28T13:24:03;7.35;;;3.00;;
51459;SDS011;37534;39.772;2.718;2023-05-28T13:26:29;26.58;;;4.35;;
51459;SDS011;37534;39.772;2.718;2023-05-28T13:28:56;9.25;;;4.20;;
51459;SDS011;37534;39.772;2.718;2023-05-28T13:31:22;9.35;;;3.10;;
51459;SDS011;37534;39.772;2.718;2023-05-28T13:33:47;13.70;;;3.30;;
51459;SDS011;37534;39.772;2.718;2023-05-28T13:36:13;6.28;;;3.78;;
51459;SDS011;37534;39.772;2.718;2023-05-28T13:38:40;6.75;;;2.65;;
51459;SDS011;37534;39.772;2.718;2023-05-28T13:41:06;9.05;;;4.03;;
51459;SDS011;37534;39.772;2.718;2023-05-28T13:43:32;8.18;;;3.28;;
51459;SDS011;37534;39.772;2.718;2023-05-28T13:45:58;11.18;;;3.83;;
51459;SDS011;37534;39.772;2.718;2023-05-28T13:48:24;6.78;;;3.53;;
51459;SDS011;37534;39.772;2.718;2023-05-28T13:50:50;6.72;;;3.42;;
51459;SDS011;37534;39.772;2.718;2023-05-28T13:53:16;4.90;;;3.63;;
51459;SDS011;37534;39.772;2.718;2023-05-28T13:55:42;6.22;;;3.83;;
51459;SDS011;37534;39.772;2.718;2023-05-28T13:58:07;17.70;;;3.70;;
51459;SDS011;37534;39.772;2.718;2023-05-28T14:00:33;9.07;;;3.83;;
51459;SDS011;37534;39.772;2.718;2023-05-28T14:02:58;8.23;;;3.17;;
51459;SDS011;37534;39.772;2.718;2023-05-28T14:05:24;9.15;;;3.15;;
51459;SDS011;37534;39.772;2.718;2023-05-28T14:07:49;9.98;;;4.78;;
51459;SDS011;37534;39.772;2.718;2023-05-28T14:10:15;11.82;;;4.15;;
51459;SDS011;37534;39.772;2.718;2023-05-28T14:12:40;6.38;;;3.10;;
51459;SDS011;37534;39.772;2.718;2023-05-28T14:15:06;7.57;;;3.25;;
51459;SDS011;37534;39.772;2.718;2023-05-28T14:17:32;4.93;;;3.53;;
51459;SDS011;37534;39.772;2.718;2023-05-28T14:19:57;7.05;;;3.30;;
51459;SDS011;37534;39.772;2.718;2023-05-28T14:22:23;5.25;;;2.90;;
51459;SDS011;37534;39.772;2.718;2023-05-28T14:24:48;10.07;;;3.80;;
51459;SDS011;37534;39.772;2.718;2023-05-28T14:27:14;7.38;;;3.65;;
51459;SDS011;37534;39.772;2.718;2023-05-28T14:29:40;7.97;;;4.55;;
51459;SDS011;37534;39.772;2.718;2023-05-28T14:32:05;7.45;;;3.28;;
51459;SDS011;37534;39.772;2.718;2023-05-28T14:34:31;11.38;;;3.42;;
51459;SDS011;37534;39.772;2.718;2023-05-28T14:36:56;6.25;;;3.42;;
51459;SDS011;37534;39.772;2.718;2023-05-28T14:39:23;11.35;;;3.75;;
51459;SDS011;37534;39.772;2.718;2023-05-28T14:41:49;7.25;;;3.72;;
51459;SDS011;37534;39.772;2.718;2023-05-28T14:44:14;11.93;;;3.38;;
51459;SDS011;37534;39.772;2.718;2023-05-28T14:46:40;7.22;;;3.72;;
51459;SDS011;37534;39.772;2.718;2023-05-28T14:49:05;7.13;;;3.90;;
51459;SDS011;37534;39.772;2.718;2023-05-28T14:51:31;7.88;;;4.30;;
51459;SDS011;37534;39.772;2.718;2023-05-28T14:53:56;8.68;;;4.03;;